sensor_id;sensor_type;location;lat;lon;timestamp;temperature;humidity
17813;DHT22;9030;50.792;8.320;2023-08-12T00:01:59;16.80;99.90
17813;DHT22;9030;50.792;8.320;2023-08-12T00:04:26;16.80;99.90
17813;DHT22;9030;50.792;8.320;2023-08-12T00:06:52;16.80;99.90
17813;DHT22;9030;50.792;8.320;2023-08-12T00:09:19;16.90;99.90
17813;DHT22;9030;50.792;8.320;2023-08-12T00:11:46;16.90;99.90
17813;DHT22;9030;50.792;8.320;2023-08-12T00:14:14;17.00;99.90
17813;DHT22;9030;50.792;8.320;2023-08-12T00:16:40;17.00;99.90
17813;DHT22;9030;50.792;8.320;2023-08-12T00:19:07;17.10;99.90
17813;DHT22;9030;50.792;8.320;2023-08-12T00:21:34;17.10;99.90
17813;DHT22;9030;50.792;8.320;2023-08-12T00:24:01;17.20;99.90
17813;DHT22;9030;50.792;8.320;2023-08-12T00:26:28;17.20;99.90
17813;DHT22;9030;50.792;8.320;2023-08-12T00:28:54;17.20;99.90
17813;DHT22;9030;50.792;8.320;2023-08-12T00:31:22;17.20;99.90
17813;DHT22;9030;50.792;8.320;2023-08-12T00:33:49;17.20;99.90
17813;DHT22;9030;50.792;8.320;2023-08-12T00:36:15;17.20;99.90
17813;DHT22;9030;50.792;8.320;2023-08-12T00:38:42;17.30;99.90
17813;DHT22;9030;50.792;8.320;2023-08-12T00:41:08;17.30;99.90
17813;DHT22;9030;50.792;8.320;2023-08-12T00:43:35;17.30;99.90
17813;DHT22;9030;50.792;8.320;2023-08-12T00:46:02;17.20;99.90
17813;DHT22;9030;50.792;8.320;2023-08-12T00:48:30;17.20;99.90
17813;DHT22;9030;50.792;8.320;2023-08-12T00:50:57;17.20;99.90
17813;DHT22;9030;50.792;8.320;2023-08-12T00:53:23;17.20;99.90
17813;DHT22;9030;50.792;8.320;2023-08-12T00:55:50;17.30;99.90
17813;DHT22;9030;50.792;8.320;2023-08-12T00:58:17;17.30;99.90
17813;DHT22;9030;50.792;8.320;2023-08-12T01:00:44;17.30;99.90
17813;DHT22;9030;50.792;8.320;2023-08-12T01:03:11;17.30;99.90
17813;DHT22;9030;50.792;8.320;2023-08-12T01:05:39;17.40;99.90
17813;DHT22;9030;50.792;8.320;2023-08-12T01:08:06;17.40;99.90
17813;DHT22;9030;50.792;8.320;2023-08-12T01:10:35;17.40;99.90
17813;DHT22;9030;50.792;8.320;2023-08-12T01:13:09;17.30;99.90
17813;DHT22;9030;50.792;8.320;2023-08-12T01:15:38;17.30;99.90
17813;DHT22;9030;50.792;8.320;2023-08-12T01:18:06;17.30;99.90
17813;DHT22;9030;50.792;8.320;2023-08-12T01:20:34;17.40;99.90
17813;DHT22;9030;50.792;8.320;2023-08-12T01:23:09;17.30;99.90
17813;DHT22;9030;50.792;8.320;2023-08-12T01:25:36;17.30;99.90
17813;DHT22;9030;50.792;8.320;2023-08-12T01:28:03;17.40;99.90
17813;DHT22;9030;50.792;8.320;2023-08-12T01:30:31;17.40;99.90
17813;DHT22;9030;50.792;8.320;2023-08-12T01:33:01;17.30;99.90
17813;DHT22;9030;50.792;8.320;2023-08-12T01:35:35;17.30;99.90
17813;DHT22;9030;50.792;8.320;2023-08-12T01:38:04;17.40;99.90
17813;DHT22;9030;50.792;8.320;2023-08-12T01:40:33;17.40;99.90
17813;DHT22;9030;50.792;8.320;2023-08-12T01:43:01;17.40;99.90
17813;DHT22;9030;50.792;8.320;2023-08-12T01:45:30;17.30;99.90
17813;DHT22;9030;50.792;8.320;2023-08-12T01:47:57;17.30;99.90
17813;DHT22;9030;50.792;8.320;2023-08-12T01:50:24;17.30;99.90
17813;DHT22;9030;50.792;8.320;2023-08-12T01:52:51;17.30;99.90
17813;DHT22;9030;50.792;8.320;2023-08-12T01:55:17;17.30;99.90
17813;DHT22;9030;50.792;8.320;2023-08-12T01:57:45;17.30;99.90
17813;DHT22;9030;50.792;8.320;2023-08-12T02:00:12;17.30;99.90
17813;DHT22;9030;50.792;8.320;2023-08-12T02:02:39;17.30;99.90
17813;DHT22;9030;50.792;8.320;2023-08-12T02:05:06;17.30;99.90
17813;DHT22;9030;50.792;8.320;2023-08-12T02:07:33;17.20;99.90
17813;DHT22;9030;50.792;8.320;2023-08-12T02:09:59;17.30;99.90
17813;DHT22;9030;50.792;8.320;2023-08-12T02:12:26;17.20;99.90
17813;DHT22;9030;50.792;8.320;2023-08-12T02:14:54;17.20;99.90
17813;DHT22;9030;50.792;8.320;2023-08-12T02:17:20;17.30;99.90
17813;DHT22;9030;50.792;8.320;2023-08-12T02:19:47;17.20;99.90
17813;DHT22;9030;50.792;8.320;2023-08-12T02:22:14;17.20;99.90
17813;DHT22;9030;50.792;8.320;2023-08-12T02:24:40;17.20;99.90
17813;DHT22;9030;50.792;8.320;2023-08-12T02:27:07;17.20;99.90
17813;DHT22;9030;50.792;8.320;2023-08-12T02:29:33;17.10;99.90
17813;DHT22;9030;50.792;8.320;2023-08-12T02:32:02;17.10;99.90
17813;DHT22;9030;50.792;8.320;2023-08-12T02:34:28;17.00;99.90
17813;DHT22;9030;50.792;8.320;2023-08-12T02:36:55;17.00;99.90
17813;DHT22;9030;50.792;8.320;2023-08-12T02:39:21;16.90;99.90
17813;DHT22;9030;50.792;8.320;2023-08-12T02:41:48;17.00;99.90
17813;DHT22;9030;50.792;8.320;2023-08-12T02:44:15;17.10;99.90
17813;DHT22;9030;50.792;8.320;2023-08-12T02:46:41;17.10;99.90
17813;DHT22;9030;50.792;8.320;2023-08-12T02:49:09;17.10;99.90
17813;DHT22;9030;50.792;8.320;2023-08-12T02:51:36;17.20;99.90
17813;DHT22;9030;50.792;8.320;2023-08-12T02:54:03;17.20;99.90
17813;DHT22;9030;50.792;8.320;2023-08-12T02:56:29;17.20;99.90
17813;DHT22;9030;50.792;8.320;2023-08-12T02:58:56;17.30;99.90
17813;DHT22;9030;50.792;8.320;2023-08-12T03:01:23;17.20;99.90
17813;DHT22;9030;50.792;8.320;2023-08-12T03:03:50;17.30;99.90
17813;DHT22;9030;50.792;8.320;2023-08-12T03:06:18;17.30;99.90
17813;DHT22;9030;50.792;8.320;2023-08-12T03:08:44;17.40;99.90
17813;DHT22;9030;50.792;8.320;2023-08-12T03:11:11;17.40;99.90
17813;DHT22;9030;50.792;8.320;2023-08-12T03:13:38;17.40;99.90
17813;DHT22;9030;50.792;8.320;2023-08-12T03:16:17;17.40;99.90
17813;DHT22;9030;50.792;8.320;2023-08-12T03:19:01;17.50;99.90
17813;DHT22;9030;50.792;8.320;2023-08-12T03:32:04;17.50;99.90
17813;DHT22;9030;50.792;8.320;2023-08-12T03:37:57;17.50;99.90
17813;DHT22;9030;50.792;8.320;2023-08-12T03:41:02;17.50;99.90
17813;DHT22;9030;50.792;8.320;2023-08-12T03:44:02;17.50;99.90
17813;DHT22;9030;50.792;8.320;2023-08-12T03:54:06;17.40;99.90
17813;DHT22;9030;50.792;8.320;2023-08-12T03:57:03;17.40;99.90
17813;DHT22;9030;50.792;8.320;2023-08-12T04:00:06;17.50;99.90
17813;DHT22;9030;50.792;8.320;2023-08-12T04:02:59;17.50;99.90
17813;DHT22;9030;50.792;8.320;2023-08-12T04:05:52;17.50;99.90
17813;DHT22;9030;50.792;8.320;2023-08-12T04:22:06;17.70;99.90
17813;DHT22;9030;50.792;8.320;2023-08-12T04:24:54;17.70;99.90
17813;DHT22;9030;50.792;8.320;2023-08-12T04:27:59;17.60;99.90
17813;DHT22;9030;50.792;8.320;2023-08-12T04:31:05;17.60;99.90
17813;DHT22;9030;50.792;8.320;2023-08-12T04:33:56;17.60;99.90
17813;DHT22;9030;50.792;8.320;2023-08-12T04:36:40;17.60;99.90
17813;DHT22;9030;50.792;8.320;2023-08-12T05:05:32;17.70;99.90
17813;DHT22;9030;50.792;8.320;2023-08-12T05:11:41;17.70;99.90
17813;DHT22;9030;50.792;8.320;2023-08-12T05:15:03;17.80;99.90
17813;DHT22;9030;50.792;8.320;2023-08-12T05:21:03;17.90;99.90
17813;DHT22;9030;50.792;8.320;2023-08-12T05:23:32;17.90;99.90
17813;DHT22;9030;50.792;8.320;2023-08-12T05:26:13;18.00;99.90
17813;DHT22;9030;50.792;8.320;2023-08-12T05:28:51;18.10;99.90
17813;DHT22;9030;50.792;8.320;2023-08-12T05:31:19;18.20;99.90
17813;DHT22;9030;50.792;8.320;2023-08-12T05:34:02;18.20;99.90
17813;DHT22;9030;50.792;8.320;2023-08-12T05:40:11;18.40;99.90
17813;DHT22;9030;50.792;8.320;2023-08-12T05:42:44;18.50;99.90
17813;DHT22;9030;50.792;8.320;2023-08-12T05:49:01;18.60;99.90
17813;DHT22;9030;50.792;8.320;2023-08-12T05:52:10;18.70;99.90
17813;DHT22;9030;50.792;8.320;2023-08-12T05:58:58;18.80;99.90
17813;DHT22;9030;50.792;8.320;2023-08-12T06:01:49;18.80;99.90
17813;DHT22;9030;50.792;8.320;2023-08-12T06:04:43;18.80;99.90
17813;DHT22;9030;50.792;8.320;2023-08-12T06:10:45;19.00;99.90
17813;DHT22;9030;50.792;8.320;2023-08-12T06:13:54;19.10;99.90
17813;DHT22;9030;50.792;8.320;2023-08-12T06:20:13;19.30;99.90
17813;DHT22;9030;50.792;8.320;2023-08-12T06:23:35;19.30;99.90
17813;DHT22;9030;50.792;8.320;2023-08-12T06:26:34;19.40;99.90
17813;DHT22;9030;50.792;8.320;2023-08-12T06:29:33;19.50;99.90
17813;DHT22;9030;50.792;8.320;2023-08-12T06:32:18;19.70;99.90
17813;DHT22;9030;50.792;8.320;2023-08-12T06:34:59;19.90;99.90
17813;DHT22;9030;50.792;8.320;2023-08-12T06:37:38;19.90;99.90
17813;DHT22;9030;50.792;8.320;2023-08-12T06:40:06;19.90;99.90
17813;DHT22;9030;50.792;8.320;2023-08-12T06:42:33;19.90;99.90
17813;DHT22;9030;50.792;8.320;2023-08-12T06:45:00;20.10;99.90
17813;DHT22;9030;50.792;8.320;2023-08-12T06:47:29;20.30;99.90
17813;DHT22;9030;50.792;8.320;2023-08-12T06:49:56;20.60;99.90
17813;DHT22;9030;50.792;8.320;2023-08-12T06:52:22;20.70;99.90
17813;DHT22;9030;50.792;8.320;2023-08-12T06:54:50;20.90;99.90
17813;DHT22;9030;50.792;8.320;2023-08-12T06:57:17;20.90;99.90
17813;DHT22;9030;50.792;8.320;2023-08-12T06:59:44;21.10;99.90
17813;DHT22;9030;50.792;8.320;2023-08-12T07:02:11;21.10;99.90
17813;DHT22;9030;50.792;8.320;2023-08-12T07:04:38;21.10;99.90
17813;DHT22;9030;50.792;8.320;2023-08-12T07:07:04;21.10;99.90
17813;DHT22;9030;50.792;8.320;2023-08-12T07:09:31;21.30;99.90
17813;DHT22;9030;50.792;8.320;2023-08-12T07:11:59;21.30;99.90
17813;DHT22;9030;50.792;8.320;2023-08-12T07:14:26;21.60;99.90
17813;DHT22;9030;50.792;8.320;2023-08-12T07:16:53;21.60;99.90
17813;DHT22;9030;50.792;8.320;2023-08-12T07:19:20;21.40;99.90
17813;DHT22;9030;50.792;8.320;2023-08-12T07:21:47;21.20;99.90
17813;DHT22;9030;50.792;8.320;2023-08-12T07:24:13;21.30;99.90
17813;DHT22;9030;50.792;8.320;2023-08-12T07:26:42;21.70;99.90
17813;DHT22;9030;50.792;8.320;2023-08-12T07:29:12;21.60;99.90
17813;DHT22;9030;50.792;8.320;2023-08-12T07:31:39;21.60;99.90
17813;DHT22;9030;50.792;8.320;2023-08-12T07:34:06;21.60;99.90
17813;DHT22;9030;50.792;8.320;2023-08-12T07:36:33;21.50;99.90
17813;DHT22;9030;50.792;8.320;2023-08-12T07:38:59;21.30;99.90
17813;DHT22;9030;50.792;8.320;2023-08-12T07:41:26;20.90;99.90
17813;DHT22;9030;50.792;8.320;2023-08-12T07:43:53;20.70;99.90
17813;DHT22;9030;50.792;8.320;2023-08-12T07:46:21;20.60;99.90
17813;DHT22;9030;50.792;8.320;2023-08-12T07:48:48;20.40;99.90
17813;DHT22;9030;50.792;8.320;2023-08-12T07:51:14;20.30;99.90
17813;DHT22;9030;50.792;8.320;2023-08-12T07:53:41;20.30;99.90
17813;DHT22;9030;50.792;8.320;2023-08-12T07:56:07;20.30;99.90
17813;DHT22;9030;50.792;8.320;2023-08-12T07:58:35;20.20;99.90
17813;DHT22;9030;50.792;8.320;2023-08-12T08:01:01;20.10;99.90
17813;DHT22;9030;50.792;8.320;2023-08-12T08:03:31;20.10;99.90
17813;DHT22;9030;50.792;8.320;2023-08-12T08:05:58;20.20;99.90
17813;DHT22;9030;50.792;8.320;2023-08-12T08:08:24;20.40;99.90
17813;DHT22;9030;50.792;8.320;2023-08-12T08:10:51;20.60;99.90
17813;DHT22;9030;50.792;8.320;2023-08-12T08:13:18;20.80;99.90
17813;DHT22;9030;50.792;8.320;2023-08-12T08:15:45;20.90;99.90
17813;DHT22;9030;50.792;8.320;2023-08-12T08:18:12;21.10;99.90
17813;DHT22;9030;50.792;8.320;2023-08-12T08:20:41;21.40;99.90
17813;DHT22;9030;50.792;8.320;2023-08-12T08:23:08;21.40;99.90
17813;DHT22;9030;50.792;8.320;2023-08-12T08:25:35;21.40;99.90
17813;DHT22;9030;50.792;8.320;2023-08-12T08:28:01;21.30;99.90
17813;DHT22;9030;50.792;8.320;2023-08-12T08:30:28;21.30;99.90
17813;DHT22;9030;50.792;8.320;2023-08-12T08:32:55;21.20;99.90
17813;DHT22;9030;50.792;8.320;2023-08-12T08:35:21;21.30;99.90
17813;DHT22;9030;50.792;8.320;2023-08-12T08:37:49;21.50;99.90
17813;DHT22;9030;50.792;8.320;2023-08-12T08:40:16;21.80;99.90
17813;DHT22;9030;50.792;8.320;2023-08-12T08:42:43;22.00;99.90
17813;DHT22;9030;50.792;8.320;2023-08-12T08:45:13;22.00;99.90
17813;DHT22;9030;50.792;8.320;2023-08-12T08:47:41;22.10;99.90
17813;DHT22;9030;50.792;8.320;2023-08-12T08:50:09;22.10;99.90
17813;DHT22;9030;50.792;8.320;2023-08-12T08:52:37;22.00;99.90
17813;DHT22;9030;50.792;8.320;2023-08-12T08:55:05;22.10;99.90
17813;DHT22;9030;50.792;8.320;2023-08-12T08:57:32;22.30;99.90
17813;DHT22;9030;50.792;8.320;2023-08-12T08:59:59;22.50;99.90
17813;DHT22;9030;50.792;8.320;2023-08-12T09:02:26;22.40;99.90
17813;DHT22;9030;50.792;8.320;2023-08-12T09:04:53;22.50;99.90
17813;DHT22;9030;50.792;8.320;2023-08-12T09:07:21;22.60;99.90
17813;DHT22;9030;50.792;8.320;2023-08-12T09:09:48;22.80;99.90
17813;DHT22;9030;50.792;8.320;2023-08-12T09:12:20;22.90;99.90
17813;DHT22;9030;50.792;8.320;2023-08-12T09:14:46;22.80;99.90
17813;DHT22;9030;50.792;8.320;2023-08-12T09:17:14;22.80;99.90
17813;DHT22;9030;50.792;8.320;2023-08-12T09:19:41;22.60;99.90
17813;DHT22;9030;50.792;8.320;2023-08-12T09:22:09;22.40;99.90
17813;DHT22;9030;50.792;8.320;2023-08-12T09:24:35;22.40;99.90
17813;DHT22;9030;50.792;8.320;2023-08-12T09:27:03;21.90;99.90
17813;DHT22;9030;50.792;8.320;2023-08-12T09:29:32;21.90;99.90
17813;DHT22;9030;50.792;8.320;2023-08-12T09:32:12;21.90;99.90
17813;DHT22;9030;50.792;8.320;2023-08-12T09:34:46;21.80;99.90
17813;DHT22;9030;50.792;8.320;2023-08-12T09:37:13;21.80;99.90
17813;DHT22;9030;50.792;8.320;2023-08-12T09:39:40;22.00;99.90
17813;DHT22;9030;50.792;8.320;2023-08-12T09:42:06;22.00;99.90
17813;DHT22;9030;50.792;8.320;2023-08-12T09:44:36;22.10;99.90
17813;DHT22;9030;50.792;8.320;2023-08-12T09:47:03;22.00;99.90
17813;DHT22;9030;50.792;8.320;2023-08-12T09:49:30;22.00;99.90
17813;DHT22;9030;50.792;8.320;2023-08-12T09:51:57;22.00;99.90
17813;DHT22;9030;50.792;8.320;2023-08-12T09:54:26;22.10;99.90
17813;DHT22;9030;50.792;8.320;2023-08-12T09:56:56;22.70;99.90
17813;DHT22;9030;50.792;8.320;2023-08-12T09:59:25;22.80;99.90
17813;DHT22;9030;50.792;8.320;2023-08-12T10:01:55;23.00;99.90
17813;DHT22;9030;50.792;8.320;2023-08-12T10:04:23;23.40;99.90
17813;DHT22;9030;50.792;8.320;2023-08-12T10:06:52;23.20;99.90
17813;DHT22;9030;50.792;8.320;2023-08-12T10:09:19;22.90;99.90
17813;DHT22;9030;50.792;8.320;2023-08-12T10:11:46;23.00;99.90
17813;DHT22;9030;50.792;8.320;2023-08-12T10:14:14;23.10;99.90
17813;DHT22;9030;50.792;8.320;2023-08-12T10:16:46;23.20;99.90
17813;DHT22;9030;50.792;8.320;2023-08-12T10:19:16;23.50;99.90
17813;DHT22;9030;50.792;8.320;2023-08-12T10:21:44;23.80;99.90
17813;DHT22;9030;50.792;8.320;2023-08-12T10:24:11;23.50;99.90
17813;DHT22;9030;50.792;8.320;2023-08-12T10:26:42;23.80;99.90
17813;DHT22;9030;50.792;8.320;2023-08-12T10:29:09;24.10;99.90
17813;DHT22;9030;50.792;8.320;2023-08-12T10:31:38;24.70;99.90
17813;DHT22;9030;50.792;8.320;2023-08-12T10:34:05;24.60;99.90
17813;DHT22;9030;50.792;8.320;2023-08-12T10:36:33;24.50;99.90
17813;DHT22;9030;50.792;8.320;2023-08-12T10:39:00;24.50;99.90
17813;DHT22;9030;50.792;8.320;2023-08-12T10:41:28;24.60;99.90
17813;DHT22;9030;50.792;8.320;2023-08-12T10:43:59;24.50;99.90
17813;DHT22;9030;50.792;8.320;2023-08-12T10:46:31;24.40;99.90
17813;DHT22;9030;50.792;8.320;2023-08-12T10:49:06;24.10;99.90
17813;DHT22;9030;50.792;8.320;2023-08-12T10:51:45;24.00;99.90
17813;DHT22;9030;50.792;8.320;2023-08-12T10:54:17;23.90;99.90
17813;DHT22;9030;50.792;8.320;2023-08-12T10:57:09;23.90;99.90
17813;DHT22;9030;50.792;8.320;2023-08-12T10:59:49;23.50;99.90
17813;DHT22;9030;50.792;8.320;2023-08-12T11:02:16;23.10;99.90
17813;DHT22;9030;50.792;8.320;2023-08-12T11:04:43;22.80;99.90
17813;DHT22;9030;50.792;8.320;2023-08-12T11:07:17;22.80;99.90
17813;DHT22;9030;50.792;8.320;2023-08-12T11:09:44;23.00;99.90
17813;DHT22;9030;50.792;8.320;2023-08-12T11:12:11;22.90;99.90
17813;DHT22;9030;50.792;8.320;2023-08-12T11:14:49;22.80;99.90
17813;DHT22;9030;50.792;8.320;2023-08-12T11:17:19;22.90;99.90
17813;DHT22;9030;50.792;8.320;2023-08-12T11:19:46;23.10;99.90
17813;DHT22;9030;50.792;8.320;2023-08-12T11:22:15;23.60;99.90
17813;DHT22;9030;50.792;8.320;2023-08-12T11:24:43;23.90;99.90
17813;DHT22;9030;50.792;8.320;2023-08-12T11:27:10;24.30;99.90
17813;DHT22;9030;50.792;8.320;2023-08-12T11:29:37;25.10;99.90
17813;DHT22;9030;50.792;8.320;2023-08-12T11:32:05;25.40;99.90
17813;DHT22;9030;50.792;8.320;2023-08-12T11:34:32;25.20;99.90
17813;DHT22;9030;50.792;8.320;2023-08-12T11:36:59;25.20;99.90
17813;DHT22;9030;50.792;8.320;2023-08-12T11:39:28;25.40;99.90
17813;DHT22;9030;50.792;8.320;2023-08-12T11:41:55;25.30;99.90
17813;DHT22;9030;50.792;8.320;2023-08-12T11:44:23;24.80;99.90
17813;DHT22;9030;50.792;8.320;2023-08-12T11:46:50;24.70;99.90
17813;DHT22;9030;50.792;8.320;2023-08-12T11:49:17;24.40;99.90
17813;DHT22;9030;50.792;8.320;2023-08-12T11:51:45;24.10;99.90
17813;DHT22;9030;50.792;8.320;2023-08-12T11:54:13;23.80;99.90
17813;DHT22;9030;50.792;8.320;2023-08-12T11:56:42;23.60;99.90
17813;DHT22;9030;50.792;8.320;2023-08-12T11:59:08;23.30;99.90
17813;DHT22;9030;50.792;8.320;2023-08-12T12:01:36;23.30;99.90
17813;DHT22;9030;50.792;8.320;2023-08-12T12:04:03;23.20;99.90
17813;DHT22;9030;50.792;8.320;2023-08-12T12:06:31;23.00;99.90
17813;DHT22;9030;50.792;8.320;2023-08-12T12:09:01;22.90;99.90
17813;DHT22;9030;50.792;8.320;2023-08-12T12:11:30;22.80;99.90
17813;DHT22;9030;50.792;8.320;2023-08-12T12:14:01;22.70;99.90
17813;DHT22;9030;50.792;8.320;2023-08-12T12:16:37;22.70;99.90
17813;DHT22;9030;50.792;8.320;2023-08-12T12:19:04;22.80;99.90
17813;DHT22;9030;50.792;8.320;2023-08-12T12:21:38;23.00;99.90
17813;DHT22;9030;50.792;8.320;2023-08-12T12:24:05;23.90;99.90
17813;DHT22;9030;50.792;8.320;2023-08-12T12:26:32;24.30;99.90
17813;DHT22;9030;50.792;8.320;2023-08-12T12:29:01;24.40;99.90
17813;DHT22;9030;50.792;8.320;2023-08-12T12:31:28;24.50;99.90
17813;DHT22;9030;50.792;8.320;2023-08-12T12:33:55;24.40;99.90
17813;DHT22;9030;50.792;8.320;2023-08-12T12:36:22;24.40;99.90
17813;DHT22;9030;50.792;8.320;2023-08-12T12:38:49;24.60;99.90
17813;DHT22;9030;50.792;8.320;2023-08-12T12:41:16;24.80;99.90
17813;DHT22;9030;50.792;8.320;2023-08-12T12:43:42;24.90;99.90
17813;DHT22;9030;50.792;8.320;2023-08-12T12:46:11;24.90;99.90
17813;DHT22;9030;50.792;8.320;2023-08-12T12:48:37;24.80;99.90
17813;DHT22;9030;50.792;8.320;2023-08-12T12:51:04;24.60;99.90
17813;DHT22;9030;50.792;8.320;2023-08-12T12:53:31;24.30;99.90
17813;DHT22;9030;50.792;8.320;2023-08-12T12:55:57;24.50;99.90
17813;DHT22;9030;50.792;8.320;2023-08-12T12:58:29;24.60;99.90
17813;DHT22;9030;50.792;8.320;2023-08-12T13:00:55;24.30;99.90
17813;DHT22;9030;50.792;8.320;2023-08-12T13:03:23;24.30;99.90
17813;DHT22;9030;50.792;8.320;2023-08-12T13:05:50;24.30;99.90
17813;DHT22;9030;50.792;8.320;2023-08-12T13:08:17;24.00;99.90
17813;DHT22;9030;50.792;8.320;2023-08-12T13:10:44;23.90;99.90
17813;DHT22;9030;50.792;8.320;2023-08-12T13:13:13;23.80;99.90
17813;DHT22;9030;50.792;8.320;2023-08-12T13:15:41;23.60;99.90
17813;DHT22;9030;50.792;8.320;2023-08-12T13:18:08;23.30;99.90
17813;DHT22;9030;50.792;8.320;2023-08-12T13:20:36;23.20;99.90
17813;DHT22;9030;50.792;8.320;2023-08-12T13:23:03;23.20;99.90
17813;DHT22;9030;50.792;8.320;2023-08-12T13:25:31;23.20;99.90
17813;DHT22;9030;50.792;8.320;2023-08-12T13:27:58;23.20;99.90
17813;DHT22;9030;50.792;8.320;2023-08-12T13:30:24;23.40;99.90
17813;DHT22;9030;50.792;8.320;2023-08-12T13:32:51;23.50;99.90
17813;DHT22;9030;50.792;8.320;2023-08-12T13:35:18;23.50;99.90
17813;DHT22;9030;50.792;8.320;2023-08-12T13:37:46;23.50;99.90
17813;DHT22;9030;50.792;8.320;2023-08-12T13:40:12;23.60;99.90
17813;DHT22;9030;50.792;8.320;2023-08-12T13:42:40;23.80;99.90
17813;DHT22;9030;50.792;8.320;2023-08-12T13:45:08;24.00;99.90
17813;DHT22;9030;50.792;8.320;2023-08-12T13:47:35;24.50;99.90
17813;DHT22;9030;50.792;8.320;2023-08-12T13:50:02;24.90;99.90
17813;DHT22;9030;50.792;8.320;2023-08-12T13:52:28;25.00;99.90
17813;DHT22;9030;50.792;8.320;2023-08-12T13:54:57;25.10;99.90
17813;DHT22;9030;50.792;8.320;2023-08-12T13:57:23;25.40;99.90
17813;DHT22;9030;50.792;8.320;2023-08-12T13:59:50;25.40;99.90
17813;DHT22;9030;50.792;8.320;2023-08-12T14:02:16;25.40;99.90
17813;DHT22;9030;50.792;8.320;2023-08-12T14:04:43;25.10;99.90
17813;DHT22;9030;50.792;8.320;2023-08-12T14:07:10;25.60;99.90
17813;DHT22;9030;50.792;8.320;2023-08-12T14:09:36;26.10;99.90
17813;DHT22;9030;50.792;8.320;2023-08-12T14:12:05;25.80;99.90
17813;DHT22;9030;50.792;8.320;2023-08-12T14:14:32;26.00;99.90
17813;DHT22;9030;50.792;8.320;2023-08-12T14:16:58;26.40;99.90
17813;DHT22;9030;50.792;8.320;2023-08-12T14:19:25;26.00;99.90
17813;DHT22;9030;50.792;8.320;2023-08-12T14:21:52;25.70;99.90
17813;DHT22;9030;50.792;8.320;2023-08-12T14:24:18;25.00;99.90
17813;DHT22;9030;50.792;8.320;2023-08-12T14:26:45;24.70;99.90
17813;DHT22;9030;50.792;8.320;2023-08-12T14:29:13;24.70;99.90
17813;DHT22;9030;50.792;8.320;2023-08-12T14:31:39;24.70;99.90
17813;DHT22;9030;50.792;8.320;2023-08-12T14:34:06;25.10;99.90
17813;DHT22;9030;50.792;8.320;2023-08-12T14:36:33;25.40;99.90
17813;DHT22;9030;50.792;8.320;2023-08-12T14:39:01;26.20;99.90
17813;DHT22;9030;50.792;8.320;2023-08-12T14:41:28;26.40;99.90
17813;DHT22;9030;50.792;8.320;2023-08-12T14:43:54;26.20;99.90
17813;DHT22;9030;50.792;8.320;2023-08-12T14:46:22;25.80;99.90
17813;DHT22;9030;50.792;8.320;2023-08-12T14:48:49;25.90;99.90
17813;DHT22;9030;50.792;8.320;2023-08-12T14:51:16;25.60;99.90
17813;DHT22;9030;50.792;8.320;2023-08-12T14:53:42;24.90;99.90
17813;DHT22;9030;50.792;8.320;2023-08-12T14:56:09;24.60;99.90
17813;DHT22;9030;50.792;8.320;2023-08-12T14:58:36;24.30;99.90
17813;DHT22;9030;50.792;8.320;2023-08-12T15:01:02;25.00;99.90
17813;DHT22;9030;50.792;8.320;2023-08-12T15:03:31;25.40;99.90
17813;DHT22;9030;50.792;8.320;2023-08-12T15:06:00;25.70;99.90
17813;DHT22;9030;50.792;8.320;2023-08-12T15:08:27;25.90;99.90
17813;DHT22;9030;50.792;8.320;2023-08-12T15:10:55;26.60;99.90
17813;DHT22;9030;50.792;8.320;2023-08-12T15:13:21;26.70;99.90
17813;DHT22;9030;50.792;8.320;2023-08-12T15:15:49;27.10;99.90
17813;DHT22;9030;50.792;8.320;2023-08-12T15:18:16;26.50;99.90
17813;DHT22;9030;50.792;8.320;2023-08-12T15:20:44;26.50;99.90
17813;DHT22;9030;50.792;8.320;2023-08-12T15:23:11;26.70;99.90
17813;DHT22;9030;50.792;8.320;2023-08-12T15:25:37;26.40;99.90
17813;DHT22;9030;50.792;8.320;2023-08-12T15:28:04;26.00;99.90
17813;DHT22;9030;50.792;8.320;2023-08-12T15:30:31;25.90;99.90
17813;DHT22;9030;50.792;8.320;2023-08-12T15:32:58;25.80;99.90
17813;DHT22;9030;50.792;8.320;2023-08-12T15:35:24;26.00;99.90
17813;DHT22;9030;50.792;8.320;2023-08-12T15:37:52;26.10;99.90
17813;DHT22;9030;50.792;8.320;2023-08-12T15:40:19;26.00;99.90
17813;DHT22;9030;50.792;8.320;2023-08-12T15:42:46;26.00;99.90
17813;DHT22;9030;50.792;8.320;2023-08-12T15:45:15;25.80;99.90
17813;DHT22;9030;50.792;8.320;2023-08-12T15:47:41;25.70;99.90
17813;DHT22;9030;50.792;8.320;2023-08-12T15:50:08;25.80;99.90
17813;DHT22;9030;50.792;8.320;2023-08-12T15:52:35;26.00;99.90
17813;DHT22;9030;50.792;8.320;2023-08-12T15:55:04;26.10;99.90
17813;DHT22;9030;50.792;8.320;2023-08-12T15:57:32;26.40;99.90
17813;DHT22;9030;50.792;8.320;2023-08-12T15:59:59;26.40;99.90
17813;DHT22;9030;50.792;8.320;2023-08-12T16:02:26;26.20;99.90
17813;DHT22;9030;50.792;8.320;2023-08-12T16:04:53;26.40;99.90
17813;DHT22;9030;50.792;8.320;2023-08-12T16:07:20;26.70;99.90
17813;DHT22;9030;50.792;8.320;2023-08-12T16:09:46;27.00;99.90
17813;DHT22;9030;50.792;8.320;2023-08-12T16:12:14;26.50;99.90
17813;DHT22;9030;50.792;8.320;2023-08-12T16:14:44;26.20;99.90
17813;DHT22;9030;50.792;8.320;2023-08-12T16:17:10;25.70;99.90
17813;DHT22;9030;50.792;8.320;2023-08-12T16:19:37;25.20;99.90
17813;DHT22;9030;50.792;8.320;2023-08-12T16:22:04;24.70;99.90
17813;DHT22;9030;50.792;8.320;2023-08-12T16:24:31;24.20;99.90
17813;DHT22;9030;50.792;8.320;2023-08-12T16:26:58;24.00;99.90
17813;DHT22;9030;50.792;8.320;2023-08-12T16:29:26;23.80;99.90
17813;DHT22;9030;50.792;8.320;2023-08-12T16:31:53;23.80;99.90
17813;DHT22;9030;50.792;8.320;2023-08-12T16:34:20;23.60;99.90
17813;DHT22;9030;50.792;8.320;2023-08-12T16:36:47;23.40;99.90
17813;DHT22;9030;50.792;8.320;2023-08-12T16:39:13;23.30;99.90
17813;DHT22;9030;50.792;8.320;2023-08-12T16:41:40;23.10;99.90
17813;DHT22;9030;50.792;8.320;2023-08-12T16:44:07;22.70;99.90
17813;DHT22;9030;50.792;8.320;2023-08-12T16:46:35;22.20;99.90
17813;DHT22;9030;50.792;8.320;2023-08-12T16:49:02;21.50;99.90
17813;DHT22;9030;50.792;8.320;2023-08-12T16:51:29;21.00;99.90
17813;DHT22;9030;50.792;8.320;2023-08-12T16:53:56;20.90;99.90
17813;DHT22;9030;50.792;8.320;2023-08-12T16:56:23;21.00;99.90
17813;DHT22;9030;50.792;8.320;2023-08-12T16:58:49;21.10;99.90
17813;DHT22;9030;50.792;8.320;2023-08-12T17:01:16;21.30;99.90
17813;DHT22;9030;50.792;8.320;2023-08-12T17:03:45;21.50;99.90
17813;DHT22;9030;50.792;8.320;2023-08-12T17:06:28;21.70;99.90
17813;DHT22;9030;50.792;8.320;2023-08-12T17:09:11;21.90;99.90
17813;DHT22;9030;50.792;8.320;2023-08-12T17:11:56;21.90;99.90
17813;DHT22;9030;50.792;8.320;2023-08-12T17:14:53;22.00;99.90
17813;DHT22;9030;50.792;8.320;2023-08-12T17:17:41;22.00;99.90
17813;DHT22;9030;50.792;8.320;2023-08-12T19:02:12;19.60;99.90
17813;DHT22;9030;50.792;8.320;2023-08-12T19:04:40;19.60;99.90
17813;DHT22;9030;50.792;8.320;2023-08-12T19:07:07;19.50;99.90
17813;DHT22;9030;50.792;8.320;2023-08-12T19:09:34;19.50;99.90
17813;DHT22;9030;50.792;8.320;2023-08-12T19:12:00;19.30;99.90